This is the latest recevied weather packets stored in our database for station/object KD5BIG-13. If no packets are shown the sender has not sent any weather packets the latest 1 day(s).
| Time | Temp. | Humidity | Pressure | Rain* | Wind** | Luminosity | Snow |
|---|---|---|---|---|---|---|---|
| 1836274571 | 21.11° C | 93% | 1020.7 hPa | 0 mm | 0.89 m/s, 310° | 0 W/m² | - |
| 1836274425 | 21.11° C | 94% | 1020.6 hPa | 0 mm | 0.89 m/s, 318° | 0 W/m² | - |
| 1836274269 | 21.11° C | 93% | 1020.7 hPa | 0 mm | 0.45 m/s, 278° | 0 W/m² | - |
| 1836274123 | 21.11° C | 93% | 1020.5 hPa | 0 mm | 0.89 m/s, 320° | 0 W/m² | - |
| 1836273968 | 21.11° C | 92% | 1020.6 hPa | 0 mm | 0.45 m/s, 219° | 0 W/m² | - |
| 1778059302 | 22.78° C | 89% | 1014.7 hPa | - | 2.24 m/s, 220° | 0 W/m² | - |
| 1778059000 | 22.78° C | 89% | 1014.6 hPa | - | 0.45 m/s, 180° | 0 W/m² | - |
| 1778058697 | 22.78° C | 89% | 1014.8 hPa | - | 0.89 m/s, 178° | 0 W/m² | - |
| 1778058396 | 22.78° C | 88% | 1014.8 hPa | - | 0.89 m/s, 211° | 0 W/m² | - |
| 1778058091 | 22.78° C | 88% | 1014.8 hPa | - | 0.45 m/s, 231° | 0 W/m² | - |
| 1778057789 | 22.78° C | 88% | 1014.9 hPa | - | 0.45 m/s, 177° | 0 W/m² | - |
| 1778057485 | 22.78° C | 87% | 1015 hPa | - | 0.45 m/s, 170° | 0 W/m² | - |
| 1778057181 | 22.78° C | 88% | 1014.8 hPa | - | 1.34 m/s, 187° | 0 W/m² | - |
| 1778056878 | 22.78° C | 88% | 1014.8 hPa | - | 1.34 m/s, 217° | 0 W/m² | - |
| 1778056575 | 22.78° C | 87% | 1014.7 hPa | - | 0.89 m/s, 194° | 0 W/m² | - |
| 1778056273 | 22.78° C | 87% | 1015 hPa | 0 mm | 1.34 m/s, 217° | 0 W/m² | - |
| 1778055969 | 22.78° C | 87% | 1015 hPa | 0 mm | 1.34 m/s, 183° | 0 W/m² | - |
| 1778055665 | 22.78° C | 87% | 1014.6 hPa | 0 mm | 0.89 m/s, 166° | 0 W/m² | - |
| 1778055363 | 22.78° C | 87% | 1014.9 hPa | 0 mm | 0.89 m/s, 163° | 0 W/m² | - |
| 1778055060 | 22.78° C | 87% | 1014.8 hPa | 0 mm | 1.34 m/s, 180° | 0 W/m² | - |
| 1778054758 | 22.78° C | 87% | 1014.9 hPa | 0 mm | 0 m/s | 0 W/m² | - |
| 1778054455 | 22.78° C | 87% | 1014.6 hPa | 0 mm | 0.89 m/s, 130° | 0 W/m² | - |
| 1778054153 | 22.78° C | 87% | 1014.4 hPa | 0 mm | 1.34 m/s, 179° | 0 W/m² | - |
| 1778053849 | 22.78° C | 87% | 1014.8 hPa | 0 mm | 0.45 m/s, 209° | 0 W/m² | - |
| 1778053547 | 22.78° C | 88% | 1014.7 hPa | 0 mm | 0.45 m/s, 181° | 0 W/m² | - |
* Rain latest hour (hover to see other rain measurements)
** Current wind speed in m/s (hover to see current wind gust speed)